createdAt,value
2022-08-09T00:00:21.400Z,14.70
2022-08-09T00:02:51.484Z,14.70
2022-08-09T00:06:17.601Z,14.60
2022-08-09T00:08:11.308Z,14.60
2022-08-09T00:11:05.551Z,14.50
2022-08-09T00:13:33.827Z,14.50
2022-08-09T00:16:06.143Z,14.40
2022-08-09T00:18:35.609Z,14.40
2022-08-09T00:21:05.031Z,14.30
2022-08-09T00:23:54.929Z,14.30
2022-08-09T00:26:20.408Z,14.20
2022-08-09T00:28:58.351Z,14.20
2022-08-09T00:31:50.542Z,14.20
2022-08-09T00:34:14.767Z,14.20
2022-08-09T00:36:48.195Z,14.10
2022-08-09T00:40:09.707Z,14.10
2022-08-09T00:44:10.126Z,14.10
2022-08-09T00:44:53.704Z,14.00
2022-08-09T00:47:25.013Z,14.00
2022-08-09T00:49:54.926Z,14.00
2022-08-09T00:52:30.120Z,13.90
2022-08-09T00:55:00.414Z,13.90
2022-08-09T00:57:34.424Z,13.90
2022-08-09T01:00:21.279Z,13.80
2022-08-09T01:02:53.119Z,13.80
2022-08-09T01:05:54.306Z,13.70
2022-08-09T01:08:40.543Z,13.70
2022-08-09T01:11:32.411Z,13.70
2022-08-09T01:14:20.137Z,13.60
2022-08-09T01:16:49.873Z,13.60
2022-08-09T01:19:42.960Z,13.60
2022-08-09T01:22:42.579Z,13.60
2022-08-09T01:25:24.942Z,13.60
2022-08-09T01:27:53.832Z,13.50
2022-08-09T01:30:33.679Z,13.50
2022-08-09T01:33:06.416Z,13.50
2022-08-09T01:36:07.091Z,13.40
2022-08-09T01:38:36.235Z,13.40
2022-08-09T01:41:13.494Z,13.30
2022-08-09T01:43:50.496Z,13.30
2022-08-09T01:46:26.777Z,13.30
2022-08-09T01:49:09.609Z,13.20
2022-08-09T01:51:44.216Z,13.20
2022-08-09T01:54:13.717Z,13.20
2022-08-09T01:56:43.081Z,13.10
2022-08-09T01:59:17.834Z,13.10
2022-08-09T02:01:59.791Z,13.10
2022-08-09T02:04:29.669Z,13.10
2022-08-09T02:07:18.016Z,13.10
2022-08-09T02:10:04.484Z,13.10
2022-08-09T02:12:33.861Z,13.10
2022-08-09T02:15:02.138Z,13.00
2022-08-09T02:18:01.044Z,13.00
2022-08-09T02:20:26.773Z,13.00
2022-08-09T02:23:10.109Z,13.00
2022-08-09T02:25:42.366Z,13.00
2022-08-09T02:28:19.002Z,13.00
2022-08-09T02:30:55.094Z,12.90
2022-08-09T02:33:37.946Z,12.90
2022-08-09T02:36:15.925Z,12.90
2022-08-09T02:38:48.861Z,12.90
2022-08-09T02:41:28.443Z,12.90
2022-08-09T02:44:00.617Z,12.90
2022-08-09T02:46:36.391Z,12.90
2022-08-09T02:49:05.810Z,12.90
2022-08-09T02:51:39.996Z,12.90
2022-08-09T02:54:09.724Z,12.90
2022-08-09T02:56:37.969Z,12.90
2022-08-09T02:59:07.892Z,12.80
2022-08-09T03:01:43.175Z,12.80
2022-08-09T03:04:28.904Z,12.80
2022-08-09T03:06:59.674Z,12.80
2022-08-09T03:09:42.918Z,12.70
2022-08-09T03:12:13.546Z,12.70
2022-08-09T03:14:42.922Z,12.70
2022-08-09T03:17:16.429Z,12.70
2022-08-09T03:19:57.887Z,12.70
2022-08-09T03:22:30.389Z,12.70
2022-08-09T03:25:06.669Z,12.70
2022-08-09T03:27:51.392Z,12.70
2022-08-09T03:30:30.221Z,12.60
2022-08-09T03:33:17.224Z,12.60
2022-08-09T03:36:13.570Z,12.60
2022-08-09T03:38:37.333Z,12.50
2022-08-09T03:41:10.152Z,12.50
2022-08-09T03:44:02.906Z,12.50
2022-08-09T03:46:34.417Z,12.50
2022-08-09T03:49:03.789Z,12.50
2022-08-09T03:51:55.696Z,12.50
2022-08-09T03:54:29.346Z,12.50
2022-08-09T03:56:59.178Z,12.50
2022-08-09T03:59:27.262Z,12.50
2022-08-09T04:02:10.571Z,12.50
2022-08-09T04:04:38.963Z,12.50
2022-08-09T04:07:06.589Z,12.40
2022-08-09T04:09:47.610Z,12.40
2022-08-09T04:12:30.132Z,12.40
2022-08-09T04:15:02.061Z,12.40
2022-08-09T04:17:39.556Z,12.40
2022-08-09T04:20:10.915Z,12.40
2022-08-09T04:22:41.232Z,12.40
2022-08-09T04:25:12.205Z,12.30
2022-08-09T04:27:46.866Z,12.40
2022-08-09T04:30:18.028Z,12.30
2022-08-09T04:32:48.542Z,12.30
2022-08-09T04:35:17.063Z,12.30
2022-08-09T04:37:46.363Z,12.30
2022-08-09T04:40:19.220Z,12.30
2022-08-09T04:42:56.653Z,12.30
2022-08-09T04:45:24.346Z,12.20
2022-08-09T04:48:03.118Z,12.20
2022-08-09T04:50:35.136Z,12.20
2022-08-09T04:53:11.664Z,12.20
2022-08-09T04:55:57.314Z,12.20
2022-08-09T04:58:27.100Z,12.20
2022-08-09T05:00:55.555Z,12.20
2022-08-09T05:03:40.613Z,12.20
2022-08-09T05:06:27.126Z,12.20
2022-08-09T05:09:00.871Z,12.20
2022-08-09T05:11:32.088Z,12.20
2022-08-09T05:14:05.857Z,12.20
2022-08-09T05:16:57.997Z,12.30
2022-08-09T05:19:25.661Z,12.20
2022-08-09T05:21:55.974Z,12.30
2022-08-09T05:24:24.746Z,12.30
2022-08-09T05:26:52.812Z,12.30
2022-08-09T05:29:22.055Z,12.30
2022-08-09T05:31:56.329Z,12.40
2022-08-09T05:34:30.797Z,12.40
2022-08-09T05:37:01.817Z,12.40
2022-08-09T05:39:43.322Z,12.40
2022-08-09T05:42:17.259Z,12.40
2022-08-09T05:44:50.718Z,12.50
2022-08-09T05:47:21.543Z,12.50
2022-08-09T05:50:29.896Z,12.50
2022-08-09T05:52:39.036Z,12.60
2022-08-09T05:55:08.897Z,12.60
2022-08-09T05:57:56.599Z,12.70
2022-08-09T06:00:26.610Z,12.70
2022-08-09T06:02:57.403Z,12.70
2022-08-09T06:05:31.175Z,12.80
2022-08-09T06:08:13.347Z,12.90
2022-08-09T06:10:40.777Z,12.90
2022-08-09T06:13:12.377Z,12.90
2022-08-09T06:15:51.381Z,13.10
2022-08-09T06:18:20.553Z,13.20
2022-08-09T06:20:56.458Z,13.20
2022-08-09T06:23:55.210Z,13.30
2022-08-09T06:26:15.136Z,13.40
2022-08-09T06:28:59.252Z,13.60
2022-08-09T06:31:31.394Z,13.60
2022-08-09T06:34:07.427Z,13.70
2022-08-09T06:36:34.941Z,13.80
2022-08-09T06:39:09.362Z,13.80
2022-08-09T06:42:08.510Z,13.90
2022-08-09T06:44:27.475Z,13.90
2022-08-09T06:46:55.644Z,14.00
2022-08-09T06:49:44.468Z,14.10
2022-08-09T06:52:12.252Z,14.20
2022-08-09T06:54:43.824Z,14.30
2022-08-09T06:57:14.414Z,14.40
2022-08-09T07:00:57.037Z,14.50
2022-08-09T07:02:31.684Z,14.50
2022-08-09T07:05:00.257Z,14.70
2022-08-09T07:07:59.996Z,14.70
2022-08-09T07:10:29.586Z,14.90
2022-08-09T07:12:59.693Z,15.00
2022-08-09T07:16:35.301Z,15.10
2022-08-09T07:18:15.040Z,15.20
2022-08-09T07:20:43.817Z,15.30
2022-08-09T07:23:18.898Z,15.40
2022-08-09T07:26:01.500Z,15.50
2022-08-09T07:28:34.562Z,15.60
2022-08-09T07:31:04.799Z,15.70
2022-08-09T07:33:52.831Z,15.80
2022-08-09T07:36:20.389Z,15.90
2022-08-09T07:38:56.803Z,16.00
2022-08-09T07:41:32.906Z,16.10
2022-08-09T07:44:06.597Z,16.20
2022-08-09T07:46:34.330Z,16.30
2022-08-09T07:49:04.920Z,16.50
2022-08-09T07:52:04.386Z,16.60
2022-08-09T07:54:28.200Z,16.70
2022-08-09T07:56:58.646Z,16.80
2022-08-09T07:59:34.532Z,16.90
2022-08-09T08:02:16.634Z,17.00
2022-08-09T08:04:48.979Z,17.10
2022-08-09T08:09:00.564Z,17.20
2022-08-09T08:10:08.759Z,17.30
2022-08-09T08:12:43.088Z,17.40
2022-08-09T08:15:13.867Z,17.50
2022-08-09T08:17:55.101Z,17.60
2022-08-09T08:20:28.710Z,17.70
2022-08-09T08:23:01.590Z,17.80
2022-08-09T08:25:44.356Z,17.90
2022-08-09T08:28:14.995Z,18.00
2022-08-09T08:30:43.970Z,18.10
2022-08-09T08:33:23.021Z,18.20
2022-08-09T08:35:59.459Z,18.20
2022-08-09T08:38:28.921Z,18.40
2022-08-09T08:40:57.002Z,18.40
2022-08-09T08:43:27.082Z,18.50
2022-08-09T08:46:04.337Z,18.60
2022-08-09T08:48:51.934Z,18.70
2022-08-09T08:51:22.822Z,18.80
2022-08-09T08:54:02.675Z,18.90
2022-08-09T08:56:39.692Z,19.00
2022-08-09T08:59:19.063Z,19.20
2022-08-09T09:01:52.808Z,19.30
2022-08-09T09:04:26.791Z,19.40
2022-08-09T09:06:57.022Z,19.50
2022-08-09T09:09:57.784Z,19.60
2022-08-09T09:12:16.787Z,19.80
2022-08-09T09:14:45.252Z,19.90
2022-08-09T09:17:16.332Z,20.00
2022-08-09T09:19:44.163Z,20.10
2022-08-09T09:22:16.480Z,20.10
2022-08-09T09:24:45.768Z,20.20
2022-08-09T09:28:04.499Z,20.20
2022-08-09T09:30:12.258Z,20.20
2022-08-09T09:32:44.353Z,20.30
2022-08-09T09:35:15.975Z,20.40
2022-08-09T09:37:45.981Z,20.50
2022-08-09T09:40:13.466Z,20.50
2022-08-09T09:42:42.853Z,20.60
2022-08-09T09:45:14.440Z,20.70
2022-08-09T09:47:56.660Z,20.80
2022-08-09T09:50:50.576Z,20.80
2022-08-09T09:53:20.942Z,21.00
2022-08-09T09:56:05.193Z,21.10
2022-08-09T09:58:47.057Z,21.20
2022-08-09T10:01:31.545Z,21.40
2022-08-09T10:04:12.772Z,21.50
2022-08-09T10:06:47.075Z,21.70
2022-08-09T10:09:22.712Z,21.90
2022-08-09T10:12:11.327Z,22.00
2022-08-09T10:14:48.258Z,22.20
2022-08-09T10:17:50.365Z,22.30
2022-08-09T10:20:27.701Z,22.50
2022-08-09T10:23:12.473Z,22.60
2022-08-09T10:26:06.459Z,22.70
2022-08-09T10:28:33.472Z,22.90
2022-08-09T10:34:11.409Z,23.10
2022-08-09T10:36:36.954Z,23.30
2022-08-09T10:39:05.993Z,23.50
2022-08-09T10:41:43.699Z,23.70
2022-08-09T10:44:11.125Z,23.90
2022-08-09T10:47:01.460Z,24.00
2022-08-09T10:49:51.637Z,24.10
2022-08-09T10:52:46.466Z,24.20
2022-08-09T10:55:24.344Z,24.30
2022-08-09T10:57:55.502Z,24.40
2022-08-09T11:00:29.446Z,24.60
2022-08-09T11:03:14.371Z,24.70
2022-08-09T11:06:04.501Z,24.70
2022-08-09T11:08:47.905Z,24.70
2022-08-09T11:11:19.317Z,24.90
2022-08-09T11:13:50.684Z,25.00
2022-08-09T11:16:35.264Z,25.30
2022-08-09T11:19:09.432Z,25.40
2022-08-09T11:22:10.865Z,25.50
2022-08-09T11:25:08.386Z,25.60
2022-08-09T11:28:04.303Z,25.70
2022-08-09T11:30:33.342Z,25.80
2022-08-09T11:33:24.705Z,26.00
2022-08-09T11:35:56.343Z,26.10
2022-08-09T11:38:33.304Z,26.20
2022-08-09T11:41:13.187Z,26.30
2022-08-09T11:43:48.725Z,26.20
2022-08-09T11:46:18.626Z,26.20
2022-08-09T11:49:00.843Z,26.30
2022-08-09T11:53:03.757Z,26.60
2022-08-09T11:54:40.643Z,26.80
2022-08-09T11:57:47.914Z,27.20
2022-08-09T12:00:22.869Z,27.40
2022-08-09T12:02:56.564Z,27.70
2022-08-09T12:05:42.296Z,28.00
2022-08-09T12:08:21.655Z,28.10
2022-08-09T12:10:53.104Z,28.30
2022-08-09T12:14:10.106Z,28.50
2022-08-09T12:16:37.353Z,28.60
2022-08-09T12:19:09.151Z,29.00
2022-08-09T12:21:50.558Z,29.30
2022-08-09T12:24:24.014Z,29.70
2022-08-09T12:28:58.674Z,29.90
2022-08-09T12:30:01.441Z,30.10
2022-08-09T12:32:40.677Z,30.20
2022-08-09T12:35:10.849Z,30.20
2022-08-09T12:37:50.278Z,30.20
2022-08-09T12:40:21.258Z,30.20
2022-08-09T12:42:51.058Z,30.20
2022-08-09T12:45:33.296Z,30.10
2022-08-09T12:48:10.738Z,30.00
2022-08-09T12:50:48.884Z,30.00
2022-08-09T12:53:38.807Z,30.00
2022-08-09T12:56:14.284Z,30.20
2022-08-09T12:59:10.462Z,30.30
2022-08-09T13:01:46.948Z,30.20
2022-08-09T13:04:33.280Z,30.20
2022-08-09T13:07:16.934Z,30.40
2022-08-09T13:09:55.207Z,30.50
2022-08-09T13:12:30.602Z,30.50
2022-08-09T13:15:07.314Z,30.60
2022-08-09T13:18:02.530Z,30.90
2022-08-09T13:20:37.781Z,31.20
2022-08-09T13:24:16.559Z,31.50
2022-08-09T13:26:09.979Z,31.70
2022-08-09T13:28:39.658Z,31.90
2022-08-09T13:32:14.248Z,31.80
2022-08-09T13:33:56.859Z,31.40
2022-08-09T13:36:41.605Z,30.90
2022-08-09T13:41:51.233Z,30.50
2022-08-09T13:42:02.332Z,30.10
2022-08-09T13:44:30.823Z,29.80
2022-08-09T13:47:25.235Z,29.70
2022-08-09T13:49:57.532Z,29.50
2022-08-09T13:52:33.339Z,29.30
2022-08-09T13:55:04.609Z,29.00
2022-08-09T13:57:37.075Z,29.20
2022-08-09T14:00:19.611Z,29.50
2022-08-09T14:03:02.198Z,30.00
2022-08-09T14:06:01.414Z,30.40
2022-08-09T14:08:20.987Z,31.00
2022-08-09T14:10:52.186Z,31.60
2022-08-09T14:14:15.056Z,32.20
2022-08-09T14:16:11.422Z,32.90
2022-08-09T14:18:45.322Z,33.40
2022-08-09T14:21:17.800Z,33.80
2022-08-09T14:23:54.656Z,34.20
2022-08-09T14:26:32.189Z,34.50
2022-08-09T14:29:07.803Z,34.60
2022-08-09T14:31:49.749Z,34.70
2022-08-09T14:34:30.949Z,34.90
2022-08-09T14:37:06.634Z,34.80
2022-08-09T14:39:40.506Z,34.70
2022-08-09T14:42:30.597Z,34.50
2022-08-09T14:46:39.778Z,34.40
2022-08-09T14:47:58.825Z,34.40
2022-08-09T14:50:27.974Z,34.70
2022-08-09T14:52:55.555Z,35.10
2022-08-09T14:55:23.119Z,35.20
2022-08-09T14:57:50.662Z,35.30
2022-08-09T15:00:18.372Z,35.40
2022-08-09T15:02:47.144Z,35.40
2022-08-09T15:05:17.003Z,35.10
2022-08-09T15:07:45.611Z,35.10
2022-08-09T15:10:24.730Z,35.10
2022-08-09T15:12:56.507Z,35.10
2022-08-09T15:15:24.691Z,35.20
2022-08-09T15:17:56.834Z,35.20
2022-08-09T15:22:00.573Z,35.40
2022-08-09T15:24:01.378Z,35.40
2022-08-09T15:26:01.904Z,35.40
2022-08-09T15:28:33.321Z,35.30
2022-08-09T15:31:09.843Z,35.30
2022-08-09T15:34:31.578Z,35.40
2022-08-09T15:36:29.373Z,35.40
2022-08-09T15:38:58.849Z,35.40
2022-08-09T15:41:31.520Z,35.60
2022-08-09T15:44:01.717Z,35.70
2022-08-09T15:46:33.696Z,35.70
2022-08-09T15:49:21.185Z,35.70
2022-08-09T15:52:05.077Z,35.70
2022-08-09T15:54:49.138Z,35.50
2022-08-09T15:57:19.181Z,35.40
2022-08-09T16:00:04.335Z,35.30
2022-08-09T16:02:32.427Z,35.30
2022-08-09T16:05:02.542Z,35.40
2022-08-09T16:07:39.537Z,35.40
2022-08-09T16:10:38.375Z,35.40
2022-08-09T16:13:01.280Z,35.40
2022-08-09T16:16:11.089Z,35.30
2022-08-09T16:18:16.486Z,35.30
2022-08-09T16:20:43.865Z,35.30
2022-08-09T16:23:14.299Z,35.10
2022-08-09T16:25:49.622Z,35.00
2022-08-09T16:28:17.494Z,34.60
2022-08-09T16:30:58.754Z,34.20
2022-08-09T16:33:27.481Z,33.60
2022-08-09T16:36:03.189Z,33.10
2022-08-09T16:38:36.875Z,32.50
2022-08-09T16:41:05.812Z,32.10
2022-08-09T16:43:40.639Z,31.70
2022-08-09T16:46:08.236Z,31.30
2022-08-09T16:48:56.881Z,30.90
2022-08-09T16:51:27.743Z,30.50
2022-08-09T16:54:26.275Z,30.20
2022-08-09T16:56:49.162Z,30.00
2022-08-09T16:59:17.835Z,29.80
2022-08-09T17:01:50.682Z,29.50
2022-08-09T17:04:25.513Z,29.40
2022-08-09T17:08:40.895Z,29.20
2022-08-09T17:09:47.205Z,29.10
2022-08-09T17:12:15.325Z,28.80
2022-08-09T17:14:47.816Z,28.60
2022-08-09T17:17:27.104Z,28.40
2022-08-09T17:20:29.827Z,28.30
2022-08-09T17:22:50.313Z,28.20
2022-08-09T17:25:20.429Z,28.10
2022-08-09T17:27:54.520Z,28.10
2022-08-09T17:30:25.879Z,28.00
2022-08-09T17:32:54.507Z,27.90
2022-08-09T17:35:25.292Z,27.80
2022-08-09T17:38:07.637Z,27.80
2022-08-09T17:40:41.489Z,27.70
2022-08-09T17:43:34.338Z,27.60
2022-08-09T17:46:06.676Z,27.50
2022-08-09T17:48:39.449Z,27.40
2022-08-09T17:51:18.487Z,27.40
2022-08-09T17:53:51.835Z,27.30
2022-08-09T17:56:27.906Z,27.20
2022-08-09T17:58:57.066Z,27.10
2022-08-09T18:01:25.293Z,27.00
2022-08-09T18:04:08.681Z,27.00
2022-08-09T18:06:36.670Z,26.90
2022-08-09T18:09:05.459Z,26.80
2022-08-09T18:11:47.110Z,26.70
2022-08-09T18:14:22.177Z,26.70
2022-08-09T18:16:49.914Z,26.60
2022-08-09T18:20:54.656Z,26.60
2022-08-09T18:22:06.313Z,26.50
2022-08-09T18:24:45.698Z,26.40
2022-08-09T18:27:49.125Z,26.30
2022-08-09T18:30:41.749Z,26.20
2022-08-09T18:32:54.349Z,26.10
2022-08-09T18:35:58.559Z,25.90
2022-08-09T18:38:12.479Z,25.80
2022-08-09T18:40:40.568Z,25.60
2022-08-09T18:43:08.995Z,25.50
2022-08-09T18:46:51.370Z,25.30
2022-08-09T18:48:25.511Z,25.20
2022-08-09T18:50:57.858Z,25.10
2022-08-09T18:53:27.622Z,25.00
2022-08-09T18:56:15.045Z,24.90
2022-08-09T18:58:43.493Z,24.80
2022-08-09T19:01:12.667Z,24.70
2022-08-09T19:04:00.971Z,24.50
2022-08-09T19:06:28.211Z,24.40
2022-08-09T19:09:02.444Z,24.30
2022-08-09T19:11:37.573Z,24.20
2022-08-09T19:14:06.890Z,24.10
2022-08-09T19:16:36.699Z,24.00
2022-08-09T19:19:21.530Z,23.90
2022-08-09T19:22:06.662Z,23.80
2022-08-09T19:25:07.533Z,23.70
2022-08-09T19:27:23.363Z,23.60
2022-08-09T19:30:22.173Z,23.50
2022-08-09T19:32:40.874Z,23.40
2022-08-09T19:35:08.454Z,23.30
2022-08-09T19:37:54.025Z,23.30
2022-08-09T19:40:22.992Z,23.10
2022-08-09T19:42:50.408Z,23.10
2022-08-09T19:45:18.651Z,23.00
2022-08-09T19:47:47.988Z,22.90
2022-08-09T19:50:49.235Z,22.80
2022-08-09T19:53:04.179Z,22.70
2022-08-09T19:56:01.999Z,22.60
2022-08-09T19:58:30.015Z,22.50
2022-08-09T20:00:58.103Z,22.30
2022-08-09T20:04:17.282Z,22.20
2022-08-09T20:06:23.028Z,22.10
2022-08-09T20:08:55.282Z,22.00
2022-08-09T20:11:26.757Z,21.90
2022-08-09T20:13:55.217Z,21.80
2022-08-09T20:16:32.901Z,21.70
2022-08-09T20:19:49.394Z,21.60
2022-08-09T20:21:57.524Z,21.50
2022-08-09T20:24:29.654Z,21.40
2022-08-09T20:27:01.667Z,21.30
2022-08-09T20:29:37.009Z,21.20
2022-08-09T20:32:31.224Z,21.10
2022-08-09T20:34:56.386Z,21.00
2022-08-09T20:37:24.048Z,20.90
2022-08-09T20:40:15.998Z,20.90
2022-08-09T20:42:39.157Z,20.80
2022-08-09T20:45:58.691Z,20.70
2022-08-09T20:47:55.347Z,20.70
2022-08-09T20:50:47.209Z,20.60
2022-08-09T20:53:18.590Z,20.60
2022-08-09T20:56:02.187Z,20.50
2022-08-09T20:58:32.679Z,20.40
2022-08-09T21:01:32.490Z,20.30
2022-08-09T21:04:14.045Z,20.30
2022-08-09T21:06:42.583Z,20.20
2022-08-09T21:09:11.767Z,20.10
2022-08-09T21:14:31.173Z,20.00
2022-08-09T21:16:59.484Z,20.00
2022-08-09T21:20:17.809Z,19.90
2022-08-09T21:22:35.932Z,19.80
2022-08-09T21:25:22.012Z,19.80
2022-08-09T21:27:52.290Z,19.70
2022-08-09T21:30:28.733Z,19.70
2022-08-09T21:32:57.306Z,19.60
2022-08-09T21:35:24.952Z,19.50
2022-08-09T21:37:59.013Z,19.50
2022-08-09T21:40:30.125Z,19.40
2022-08-09T21:42:59.365Z,19.40
2022-08-09T21:45:26.969Z,19.30
2022-08-09T21:47:55.701Z,19.30
2022-08-09T21:50:33.827Z,19.30
2022-08-09T21:53:19.842Z,19.20
2022-08-09T21:55:55.370Z,19.20
2022-08-09T21:58:31.151Z,19.10
2022-08-09T22:00:59.212Z,19.10
2022-08-09T22:03:26.787Z,19.00
2022-08-09T22:05:54.996Z,19.00
2022-08-09T22:08:28.302Z,18.90
2022-08-09T22:11:49.909Z,18.90
2022-08-09T22:13:44.048Z,18.90
2022-08-09T22:16:12.109Z,18.80
2022-08-09T22:18:44.055Z,18.80
2022-08-09T22:21:24.329Z,18.70
2022-08-09T22:24:00.071Z,18.70
2022-08-09T22:26:35.207Z,18.60
2022-08-09T22:29:09.746Z,18.60
2022-08-09T22:31:44.201Z,18.60
2022-08-09T22:34:18.100Z,18.50
2022-08-09T22:36:54.095Z,18.50
2022-08-09T22:39:57.135Z,18.40
2022-08-09T22:42:22.415Z,18.40
2022-08-09T22:45:11.577Z,18.30
2022-08-09T22:48:11.232Z,18.30
2022-08-09T22:50:27.740Z,18.20
2022-08-09T22:52:58.275Z,18.20
2022-08-09T22:55:39.247Z,18.20
2022-08-09T22:58:30.634Z,18.10
2022-08-09T23:01:04.681Z,18.10
2022-08-09T23:04:04.301Z,18.00
2022-08-09T23:06:35.118Z,18.00
2022-08-09T23:09:06.946Z,17.90
2022-08-09T23:11:34.592Z,17.80
2022-08-09T23:14:03.615Z,17.80
2022-08-09T23:16:31.842Z,17.80
2022-08-09T23:18:59.547Z,17.80
2022-08-09T23:21:32.773Z,17.70
2022-08-09T23:24:06.100Z,17.70
2022-08-09T23:26:35.383Z,17.60
2022-08-09T23:29:03.247Z,17.60
2022-08-09T23:31:30.704Z,17.60
2022-08-09T23:33:58.261Z,17.50
2022-08-09T23:36:25.719Z,17.40
2022-08-09T23:38:53.290Z,17.40
2022-08-09T23:41:28.530Z,17.30
2022-08-09T23:44:00.278Z,17.30
2022-08-09T23:46:28.781Z,17.20
2022-08-09T23:48:56.650Z,17.20
2022-08-09T23:51:24.330Z,17.20
2022-08-09T23:53:52.459Z,17.10
2022-08-09T23:56:52.572Z,17.10
2022-08-09T23:59:08.889Z,17.10
